Terminal Aerodrome Forecast
Issued by NWS

Home | Current Version | Previous Version | Text Only | Print | Product List | Glossary On
Versions: 1 2 3 4 5 6 7 8 9 10 11 12 13
084
FTUS42 KTAE 072320
TAFDHN
TAF
KDHN 072320Z 0800/0824 30005KT P6SM SKC
     FM081600 27017G27KT P6SM BKN050=

USA.gov is the U.S. government's official web portal to all federal, state and local government web resources and services.